Time;durP1;ratioP1;P1;durP2;ratioP2;P2;SDS_P1;SDS_P2;PMS_P1;PMS_P2;Temp;Humidity;BMP_temperature;BMP_pressure;BME280_temperature;BME280_humidity;BME280_pressure;Samples;Min_cycle;Max_cycle;Signal;HPM_P1;HPM_P2
2021/03/05 00:00:31;;;;;;;32.90;18.40;;;7.50;99.90;;;;;;5055110;28;20407;-48
2021/03/05 00:02:57;;;;;;;31.50;16.80;;;9.20;99.90;;;;;;5069430;28;20759;-47
2021/03/05 00:05:23;;;;;;;32.35;18.77;;;6.90;99.90;;;;;;5072935;28;20396;-49
2021/03/05 00:07:48;;;;;;;32.63;17.92;;;6.80;99.90;;;;;;5072586;28;20413;-51
2021/03/05 00:10:17;;;;;;;32.88;19.02;;;7.30;99.90;;;;;;5088878;28;20377;-48
2021/03/05 00:12:43;;;;;;;35.50;19.50;;;9.10;99.90;;;;;;5089002;28;20447;-48
2021/03/05 00:15:10;;;;;;;35.25;19.17;;;7.20;99.90;;;;;;5084087;28;21020;-48
2021/03/05 00:17:37;;;;;;;34.67;18.50;;;6.60;99.90;;;;;;5083871;28;20407;-50
2021/03/05 00:20:12;;;;;;;34.22;18.67;;;6.80;99.90;;;;;;5071890;28;20951;-50
2021/03/05 00:22:39;;;;;;;33.60;18.80;;;6.70;99.90;;;;;;5089322;28;20392;-50
2021/03/05 00:25:05;;;;;;;33.75;18.60;;;6.70;99.90;;;;;;5085024;28;20429;-48
2021/03/05 00:27:31;;;;;;;34.70;18.25;;;6.60;99.90;;;;;;5084457;28;20420;-53
2021/03/05 00:29:57;;;;;;;36.55;18.95;;;6.40;99.90;;;;;;5089887;28;20762;-47
2021/03/05 00:32:23;;;;;;;37.72;18.10;;;6.20;99.90;;;;;;5089969;28;20385;-48
2021/03/05 00:34:48;;;;;;;36.03;18.33;;;6.30;99.90;;;;;;5049890;28;20753;-47
2021/03/05 00:37:14;;;;;;;41.57;20.33;;;8.40;99.90;;;;;;5059588;28;20419;-48
2021/03/05 00:39:40;;;;;;;40.88;19.75;;;7.20;99.90;;;;;;5089649;28;20382;-47
2021/03/05 00:42:06;;;;;;;40.65;21.25;;;5.80;99.90;;;;;;5084409;28;20466;-48
2021/03/05 00:44:32;;;;;;;38.33;21.10;;;5.80;99.90;;;;;;5088694;28;20798;-53
2021/03/05 00:46:58;;;;;;;39.20;20.57;;;5.80;99.90;;;;;;5084232;28;20398;-47
2021/03/05 00:49:23;;;;;;;38.63;20.87;;;5.80;99.90;;;;;;5084265;28;20424;-47
2021/03/05 00:51:49;;;;;;;38.20;20.08;;;6.40;99.90;;;;;;5088418;28;20501;-48
2021/03/05 00:54:14;;;;;;;38.83;20.90;;;6.40;99.90;;;;;;5089278;28;20838;-48
2021/03/05 00:56:40;;;;;;;37.17;20.70;;;5.80;99.90;;;;;;5082561;28;20937;-48
2021/03/05 00:59:06;;;;;;;36.60;19.67;;;7.00;99.90;;;;;;5089752;28;20382;-48
2021/03/05 01:01:31;;;;;;;35.75;19.00;;;8.90;99.90;;;;;;5089486;28;20374;-53
2021/03/05 01:03:57;;;;;;;39.27;20.80;;;8.80;99.90;;;;;;5082443;28;20883;-48
2021/03/05 01:06:22;;;;;;;42.70;20.70;;;9.00;99.90;;;;;;5089345;28;20392;-47
2021/03/05 01:08:48;;;;;;;38.50;19.42;;;7.20;99.90;;;;;;5082981;28;20417;-47
2021/03/05 01:11:14;;;;;;;41.50;20.25;;;7.00;99.90;;;;;;5089700;28;20402;-48
2021/03/05 01:13:40;;;;;;;42.43;21.33;;;8.30;99.90;;;;;;5081901;28;20444;-47
2021/03/05 01:16:06;;;;;;;44.10;21.63;;;5.30;99.90;;;;;;5089106;28;20390;-47
2021/03/05 01:18:32;;;;;;;45.50;22.83;;;6.50;99.90;;;;;;5083981;28;20849;-54
2021/03/05 01:20:58;;;;;;;48.85;23.20;;;5.50;99.90;;;;;;5084103;28;20404;-48
2021/03/05 01:23:24;;;;;;;40.65;21.30;;;8.10;99.90;;;;;;5089116;28;20401;-47
2021/03/05 01:25:49;;;;;;;45.50;22.20;;;5.90;99.90;;;;;;5088151;28;20374;-47
2021/03/05 01:28:15;;;;;;;45.87;21.90;;;7.10;99.90;;;;;;5083519;28;20798;-47
2021/03/05 01:30:41;;;;;;;46.65;22.60;;;5.30;99.90;;;;;;5088612;28;20385;-47
2021/03/05 01:33:07;;;;;;;45.40;22.63;;;5.00;99.90;;;;;;5089159;28;20887;-47
2021/03/05 01:35:33;;;;;;;47.70;25.10;;;5.00;99.90;;;;;;5083746;28;20928;-54
2021/03/05 01:37:59;;;;;;;39.85;21.30;;;5.90;99.90;;;;;;5088781;28;20421;-47
2021/03/05 01:40:32;;;;;;;42.55;22.27;;;4.90;99.90;;;;;;5089813;28;20370;-47
2021/03/05 01:42:58;;;;;;;44.25;22.63;;;5.80;99.90;;;;;;5082707;28;20401;-47
2021/03/05 01:45:27;;;;;;;44.40;22.20;;;4.80;99.90;;;;;;5088632;28;20383;-47
2021/03/05 01:47:56;;;;;;;44.63;22.83;;;4.80;99.90;;;;;;5082221;28;20443;-47
2021/03/05 01:50:25;;;;;;;43.00;20.63;;;4.80;99.90;;;;;;5089025;28;20374;-48
2021/03/05 01:53:05;;;;;;;41.85;21.90;;;4.80;99.90;;;;;;5083199;28;20474;-47
2021/03/05 01:55:30;;;;;;;41.20;22.00;;;7.10;99.90;;;;;;5087423;28;20936;-52
2021/03/05 01:57:57;;;;;;;43.90;22.17;;;7.50;99.90;;;;;;5063368;28;20425;-48
2021/03/05 02:00:32;;;;;;;42.55;21.52;;;4.90;99.90;;;;;;5089489;28;20386;-48
2021/03/05 02:02:57;;;;;;;44.83;22.13;;;4.90;99.90;;;;;;5085990;28;20374;-47
2021/03/05 02:05:23;;;;;;;40.28;21.00;;;4.90;99.90;;;;;;5085098;28;20408;-48
2021/03/05 02:07:49;;;;;;;44.30;20.20;;;4.90;99.90;;;;;;5081950;28;20944;-47
2021/03/05 02:10:15;;;;;;;41.70;20.20;;;6.50;99.90;;;;;;5088495;28;20408;-48
2021/03/05 02:12:41;;;;;;;39.03;19.55;;;4.90;99.90;;;;;;5087609;28;20850;-47
2021/03/05 02:15:08;;;;;;;39.27;19.57;;;6.40;99.90;;;;;;5083355;28;20382;-49
2021/03/05 02:17:39;;;;;;;42.87;20.37;;;5.10;99.90;;;;;;5088525;28;20406;-53
2021/03/05 02:20:23;;;;;;;40.13;20.25;;;5.50;99.90;;;;;;5083191;28;20404;-48
2021/03/05 02:23:20;;;;;;;44.60;20.95;;;5.00;99.90;;;;;;5088032;28;20473;-47
2021/03/05 02:25:55;;;;;;;40.80;19.65;;;5.00;99.90;;;;;;5084495;28;20397;-47
2021/03/05 02:28:45;;;;;;;39.55;20.35;;;7.20;99.90;;;;;;5092681;28;20535;-48
2021/03/05 02:31:18;;;;;;;36.50;18.42;;;5.10;99.90;;;;;;5090414;28;20394;-48
2021/03/05 02:34:07;;;;;;;33.78;17.95;;;5.20;99.90;;;;;;5088449;28;20399;-48
2021/03/05 02:36:57;;;;;;;36.38;18.27;;;5.20;99.90;;;;;;5071005;28;20473;-53
2021/03/05 02:39:25;;;;;;;38.03;18.55;;;5.20;99.90;;;;;;5090904;28;20844;-47
2021/03/05 02:41:58;;;;;;;38.25;18.60;;;7.80;99.90;;;;;;5085991;28;20394;-47
2021/03/05 02:44:27;;;;;;;35.28;17.90;;;6.50;99.90;;;;;;5092131;28;20524;-47
2021/03/05 02:46:59;;;;;;;34.58;17.17;;;6.90;99.90;;;;;;5085150;28;21044;-49
2021/03/05 02:49:27;;;;;;;36.70;17.75;;;5.30;99.90;;;;;;5090958;28;20906;-49
2021/03/05 02:51:58;;;;;;;35.17;17.63;;;4.90;99.90;;;;;;5072983;28;20403;-48
2021/03/05 02:54:27;;;;;;;39.20;18.52;;;4.90;99.90;;;;;;5074763;28;20443;-48
2021/03/05 02:56:54;;;;;;;36.13;18.00;;;7.60;99.90;;;;;;5070658;28;20415;-47
2021/03/05 02:59:22;;;;;;;38.63;18.60;;;4.70;99.90;;;;;;5074479;28;20391;-47
2021/03/05 03:01:48;;;;;;;35.77;18.57;;;4.80;99.90;;;;;;5070964;28;20372;-48
2021/03/05 03:04:14;;;;;;;36.00;17.97;;;4.90;99.90;;;;;;5073046;28;20467;-48
2021/03/05 03:06:43;;;;;;;32.45;17.92;;;4.70;99.90;;;;;;5071143;28;20400;-47
2021/03/05 03:09:10;;;;;;;36.78;18.80;;;4.80;99.90;;;;;;5071592;28;20398;-47
2021/03/05 03:11:40;;;;;;;37.50;18.90;;;4.70;99.90;;;;;;5071724;28;20391;-53
2021/03/05 03:14:06;;;;;;;38.97;18.87;;;7.00;99.90;;;;;;5091134;28;20794;-47
2021/03/05 03:16:32;;;;;;;35.35;17.27;;;6.70;99.90;;;;;;5085609;28;20414;-53
2021/03/05 03:18:58;;;;;;;36.78;18.92;;;6.70;99.90;;;;;;5090804;28;20496;-51
2021/03/05 03:21:25;;;;;;;35.78;18.30;;;4.60;99.90;;;;;;5091622;28;20800;-49
2021/03/05 03:23:51;;;;;;;35.97;18.00;;;4.60;99.90;;;;;;5084373;28;20472;-47
2021/03/05 03:26:17;;;;;;;37.28;18.33;;;6.40;99.90;;;;;;5090732;28;20762;-47
2021/03/05 03:28:43;;;;;;;34.95;18.10;;;7.60;99.90;;;;;;5085082;28;20398;-47
2021/03/05 03:31:10;;;;;;;39.30;18.27;;;2.00;99.90;;;;;;5091920;28;20443;-47
2021/03/05 03:33:36;;;;;;;36.90;19.30;;;4.70;99.90;;;;;;5085542;28;20443;-53
2021/03/05 03:36:03;;;;;;;29.60;15.95;;;6.90;99.90;;;;;;5090368;28;20780;-47
2021/03/05 03:38:30;;;;;;;34.08;17.30;;;4.70;99.90;;;;;;5085966;28;20527;-49
2021/03/05 03:40:57;;;;;;;32.55;16.45;;;5.30;99.90;;;;;;5090519;28;20393;-48
2021/03/05 03:43:23;;;;;;;27.90;14.98;;;4.70;99.90;;;;;;5084642;28;20866;-47
2021/03/05 03:45:49;;;;;;;30.07;15.97;;;6.20;99.90;;;;;;5089309;28;20374;-47
2021/03/05 03:48:15;;;;;;;29.20;16.17;;;6.20;99.90;;;;;;5085380;28;20496;-47
2021/03/05 03:50:49;;;;;;;27.83;15.60;;;7.50;99.90;;;;;;5090615;28;20898;-49
2021/03/05 03:53:25;;;;;;;28.65;14.77;;;5.20;99.90;;;;;;5090776;28;20465;-47
2021/03/05 03:55:55;;;;;;;26.48;14.80;;;4.80;99.90;;;;;;5085599;28;20394;-47
2021/03/05 03:58:22;;;;;;;24.60;13.48;;;4.80;99.90;;;;;;5084585;28;20429;-49
2021/03/05 04:00:51;;;;;;;22.58;13.30;;;7.30;99.90;;;;;;5089768;28;20443;-48
2021/03/05 04:03:18;;;;;;;23.27;13.33;;;4.80;99.90;;;;;;5085099;28;20527;-48
2021/03/05 04:05:46;;;;;;;25.50;13.65;;;4.70;99.90;;;;;;5089505;28;20860;-48
2021/03/05 04:08:14;;;;;;;26.58;14.75;;;7.00;99.90;;;;;;5089876;28;20382;-48
2021/03/05 04:10:41;;;;;;;25.60;14.48;;;6.80;99.90;;;;;;5085886;28;20728;-49
2021/03/05 04:13:09;;;;;;;26.00;13.63;;;4.60;99.90;;;;;;5090424;28;20423;-47
2021/03/05 04:15:36;;;;;;;26.35;14.63;;;4.80;99.90;;;;;;5084196;28;20489;-53
2021/03/05 04:18:03;;;;;;;25.08;13.73;;;4.70;99.90;;;;;;5084437;28;20428;-50
2021/03/05 04:20:30;;;;;;;25.45;14.20;;;4.70;99.90;;;;;;5090298;28;20397;-48
2021/03/05 04:22:57;;;;;;;25.37;13.80;;;7.20;99.90;;;;;;5089802;28;20390;-49
2021/03/05 04:25:23;;;;;;;24.80;13.57;;;7.20;99.90;;;;;;5084354;28;20426;-48
2021/03/05 04:27:48;;;;;;;28.88;14.02;;;7.70;99.90;;;;;;5089477;28;20381;-49
2021/03/05 04:30:15;;;;;;;25.65;14.10;;;4.60;99.90;;;;;;5090853;28;20917;-48
2021/03/05 04:32:42;;;;;;;25.95;13.77;;;4.70;99.90;;;;;;5084000;28;20471;-48
2021/03/05 04:35:09;;;;;;;26.00;13.82;;;4.80;99.90;;;;;;5089222;28;20381;-48
2021/03/05 04:37:35;;;;;;;25.43;13.27;;;4.80;99.90;;;;;;5083884;28;20424;-54
2021/03/05 04:40:02;;;;;;;23.70;13.15;;;5.30;99.90;;;;;;5071148;28;20988;-48
2021/03/05 04:42:28;;;;;;;23.98;13.82;;;4.60;99.90;;;;;;5090153;28;20712;-48
2021/03/05 04:44:53;;;;;;;26.08;13.90;;;4.50;99.90;;;;;;5083744;28;20484;-47
2021/03/05 04:47:19;;;;;;;24.47;12.97;;;4.50;99.90;;;;;;5090153;28;20390;-47
2021/03/05 04:49:44;;;;;;;26.97;14.20;;;4.60;99.90;;;;;;5083966;28;20390;-47
2021/03/05 04:52:10;;;;;;;25.13;13.23;;;5.40;99.90;;;;;;5084917;28;20404;-48
2021/03/05 04:54:36;;;;;;;26.33;13.80;;;4.60;99.90;;;;;;5087939;28;20383;-53
2021/03/05 04:57:01;;;;;;;26.08;13.75;;;6.60;99.90;;;;;;5083111;28;20464;-49
2021/03/05 04:59:27;;;;;;;24.40;12.80;;;4.60;99.90;;;;;;5086536;28;20452;-48
2021/03/05 05:01:53;;;;;;;24.27;12.23;;;7.00;99.90;;;;;;5085968;28;20393;-48
2021/03/05 05:04:18;;;;;;;25.65;13.18;;;7.40;99.90;;;;;;5089974;28;20382;-47
2021/03/05 05:06:44;;;;;;;23.77;12.77;;;6.40;99.90;;;;;;5083216;28;20912;-47
2021/03/05 05:09:09;;;;;;;25.20;12.90;;;4.80;99.90;;;;;;5089666;28;20386;-49
2021/03/05 05:11:35;;;;;;;24.17;12.80;;;6.40;99.90;;;;;;5088648;28;20386;-53
2021/03/05 05:14:00;;;;;;;23.70;12.50;;;4.70;99.90;;;;;;5084057;28;20857;-51
2021/03/05 05:16:27;;;;;;;21.57;11.30;;;4.60;99.90;;;;;;5087997;28;20393;-47
2021/03/05 05:18:52;;;;;;;21.98;11.85;;;4.70;99.90;;;;;;5087564;28;20562;-48
2021/03/05 05:21:18;;;;;;;24.83;12.77;;;5.00;99.90;;;;;;5083866;28;20889;-50
2021/03/05 05:23:44;;;;;;;23.95;12.13;;;4.60;99.90;;;;;;5070362;28;21128;-48
2021/03/05 05:26:12;;;;;;;24.50;12.23;;;7.60;99.90;;;;;;5083969;28;20397;-49
2021/03/05 05:28:37;;;;;;;25.10;12.60;;;1.70;99.90;;;;;;5089267;28;20650;-47
2021/03/05 05:31:03;;;;;;;22.67;11.80;;;6.30;99.90;;;;;;5084092;28;20489;-47
2021/03/05 05:33:28;;;;;;;21.33;10.90;;;4.90;99.90;;;;;;5089188;28;20393;-50
2021/03/05 05:35:54;;;;;;;24.00;12.53;;;5.50;99.90;;;;;;5082224;28;20390;-47
2021/03/05 05:38:19;;;;;;;22.35;11.38;;;4.60;99.90;;;;;;5052728;28;20804;-47
2021/03/05 05:40:45;;;;;;;22.70;11.53;;;4.50;99.90;;;;;;5070756;28;20489;-48
2021/03/05 05:43:11;;;;;;;23.00;11.80;;;4.50;99.90;;;;;;5075849;28;20771;-47
2021/03/05 05:45:36;;;;;;;24.45;12.55;;;7.50;99.90;;;;;;5083452;28;20398;-49
2021/03/05 05:48:03;;;;;;;22.77;11.60;;;4.60;99.90;;;;;;5088746;28;20397;-47
2021/03/05 05:50:30;;;;;;;24.98;11.90;;;4.60;99.90;;;;;;5089648;28;20382;-48
2021/03/05 05:52:57;;;;;;;21.35;10.57;;;4.60;99.90;;;;;;5081606;28;20410;-48
2021/03/05 05:55:24;;;;;;;25.02;12.45;;;4.90;99.90;;;;;;5068932;28;20380;-50
2021/03/05 05:57:50;;;;;;;23.55;12.00;;;4.80;99.90;;;;;;5066959;28;20423;-47
2021/03/05 06:00:16;;;;;;;21.85;11.20;;;4.80;99.90;;;;;;5073571;28;20427;-47
2021/03/05 06:02:44;;;;;;;22.67;10.82;;;4.90;99.90;;;;;;5071058;28;20384;-48
2021/03/05 06:05:13;;;;;;;22.60;11.18;;;6.90;99.90;;;;;;5076193;28;20492;-47
2021/03/05 06:07:41;;;;;;;21.27;10.68;;;4.90;99.90;;;;;;5072198;28;20395;-47
2021/03/05 06:10:08;;;;;;;23.10;11.25;;;7.70;99.90;;;;;;5072843;28;20449;-48
2021/03/05 06:12:34;;;;;;;21.42;10.73;;;4.70;99.90;;;;;;5076769;28;20391;-53
2021/03/05 06:15:00;;;;;;;21.33;10.48;;;4.70;99.90;;;;;;5090029;28;20700;-48
2021/03/05 06:17:42;;;;;;;24.17;12.00;;;4.80;99.90;;;;;;5088805;28;20505;-48
2021/03/05 06:20:08;;;;;;;20.55;10.88;;;7.20;99.90;;;;;;5092546;28;20413;-49
2021/03/05 06:22:34;;;;;;;23.00;11.70;;;4.90;99.90;;;;;;5087808;28;20873;-53
2021/03/05 06:25:00;;;;;;;21.67;11.20;;;4.80;99.90;;;;;;5092442;28;20510;-49
2021/03/05 06:27:30;;;;;;;23.77;11.23;;;6.30;99.90;;;;;;5087861;28;20407;-47
2021/03/05 06:29:55;;;;;;;22.83;11.13;;;4.80;99.90;;;;;;5091005;28;20382;-47
2021/03/05 06:32:32;;;;;;;22.20;10.43;;;7.10;99.90;;;;;;5086991;28;20413;-49
2021/03/05 06:34:58;;;;;;;22.42;11.18;;;4.70;99.90;;;;;;5091757;28;20846;-48
2021/03/05 06:37:25;;;;;;;23.77;11.10;;;7.60;99.90;;;;;;5085917;28;20418;-47
2021/03/05 06:40:03;;;;;;;24.10;11.80;;;7.50;99.90;;;;;;5090649;28;20378;-47
2021/03/05 06:42:29;;;;;;;25.67;11.50;;;4.90;99.90;;;;;;5086429;28;20437;-48
2021/03/05 06:44:55;;;;;;;22.37;11.10;;;4.80;99.90;;;;;;5091211;28;20547;-48
2021/03/05 06:47:22;;;;;;;22.83;12.07;;;4.80;99.90;;;;;;5092442;28;20385;-48
2021/03/05 06:49:49;;;;;;;26.33;11.80;;;4.70;99.90;;;;;;5086291;28;20393;-52
2021/03/05 06:52:17;;;;;;;23.73;11.50;;;4.60;99.90;;;;;;5091825;28;20427;-49
2021/03/05 06:54:43;;;;;;;26.13;12.00;;;4.50;99.90;;;;;;5081134;28;20480;-49
2021/03/05 06:57:10;;;;;;;23.23;11.90;;;4.70;99.90;;;;;;5091426;28;20410;-48
2021/03/05 06:59:39;;;;;;;23.70;12.23;;;4.70;99.90;;;;;;5088454;28;20499;-53
2021/03/05 07:02:14;;;;;;;27.67;12.48;;;4.60;99.90;;;;;;5071617;28;20411;-48
2021/03/05 07:04:43;;;;;;;26.35;12.20;;;6.00;99.90;;;;;;5066003;28;20386;-47
2021/03/05 07:07:11;;;;;;;26.30;12.70;;;4.60;99.90;;;;;;5055125;28;20415;-47
2021/03/05 07:09:41;;;;;;;25.85;13.80;;;4.70;99.90;;;;;;5058626;28;20797;-53
2021/03/05 07:12:09;;;;;;;27.05;13.40;;;4.70;99.90;;;;;;5089856;28;20505;-52
2021/03/05 07:14:36;;;;;;;23.83;12.82;;;4.80;99.90;;;;;;5088723;28;20382;-53
2021/03/05 07:17:02;;;;;;;25.05;12.60;;;5.80;99.90;;;;;;5090781;28;20398;-47
2021/03/05 07:19:30;;;;;;;28.52;12.63;;;4.80;99.90;;;;;;5086195;28;20408;-48
2021/03/05 07:21:56;;;;;;;24.45;10.90;;;5.50;99.90;;;;;;5090549;28;20457;-47
2021/03/05 07:24:24;;;;;;;24.70;11.73;;;4.80;99.90;;;;;;5085453;28;20406;-47
2021/03/05 07:26:56;;;;;;;22.38;11.40;;;4.80;99.90;;;;;;5090092;28;20486;-50
2021/03/05 07:29:35;;;;;;;23.65;11.50;;;4.70;99.90;;;;;;5085151;28;20402;-47
2021/03/05 07:32:11;;;;;;;23.55;12.02;;;4.70;99.90;;;;;;5090892;28;20390;-47
2021/03/05 07:34:57;;;;;;;25.92;12.95;;;4.70;99.90;;;;;;5089691;28;20397;-52
2021/03/05 07:37:37;;;;;;;23.60;11.45;;;4.70;99.90;;;;;;5085108;28;20421;-49
2021/03/05 07:40:10;;;;;;;25.10;11.77;;;5.40;99.90;;;;;;5091096;28;20413;-47
2021/03/05 07:42:38;;;;;;;25.10;12.50;;;4.60;99.90;;;;;;5085074;28;20395;-53
2021/03/05 07:45:05;;;;;;;23.10;11.50;;;4.60;99.90;;;;;;5070573;28;20416;-48
2021/03/05 07:47:33;;;;;;;25.08;12.73;;;4.60;99.90;;;;;;5072474;28;21032;-48
2021/03/05 07:50:00;;;;;;;22.98;11.32;;;7.60;99.90;;;;;;5070453;28;20396;-48
2021/03/05 07:52:26;;;;;;;24.30;11.27;;;4.90;99.90;;;;;;5075532;28;20874;-47
2021/03/05 07:54:52;;;;;;;23.02;11.25;;;4.60;99.90;;;;;;5089821;28;20385;-48
2021/03/05 07:57:23;;;;;;;23.88;11.43;;;4.50;99.90;;;;;;5084626;28;20422;-48
2021/03/05 07:59:52;;;;;;;24.25;11.43;;;4.70;99.90;;;;;;5089529;28;20382;-50
2021/03/05 08:02:19;;;;;;;20.88;10.82;;;7.60;99.90;;;;;;5085488;28;20400;-47
2021/03/05 08:04:52;;;;;;;25.13;12.48;;;5.80;99.90;;;;;;5089599;28;20432;-48
2021/03/05 08:07:26;;;;;;;23.42;11.15;;;4.80;99.90;;;;;;5089970;28;20421;-48
2021/03/05 08:09:53;;;;;;;21.95;10.75;;;7.70;99.90;;;;;;5082831;28;20413;-48
2021/03/05 08:12:30;;;;;;;25.48;10.90;;;4.80;99.90;;;;;;5089305;28;20420;-48
2021/03/05 08:15:08;;;;;;;20.95;10.85;;;4.70;99.90;;;;;;5090050;28;20392;-48
2021/03/05 08:17:42;;;;;;;21.55;10.57;;;6.80;99.90;;;;;;5071080;28;20839;-54
2021/03/05 08:20:16;;;;;;;23.33;11.23;;;4.50;99.90;;;;;;5069867;28;20379;-50
2021/03/05 08:23:02;;;;;;;26.30;11.60;;;4.60;99.90;;;;;;5071393;28;20970;-48
2021/03/05 08:25:33;;;;;;;21.52;11.10;;;4.60;99.90;;;;;;5067631;28;20397;-48
2021/03/05 08:28:00;;;;;;;23.73;11.37;;;4.80;99.90;;;;;;5070251;28;20406;-48
2021/03/05 08:30:29;;;;;;;24.40;11.50;;;4.90;99.90;;;;;;5084799;28;20401;-48
2021/03/05 08:33:00;;;;;;;21.55;11.88;;;4.80;99.90;;;;;;5088480;28;20950;-50
2021/03/05 08:35:28;;;;;;;26.15;10.75;;;4.80;99.90;;;;;;5084320;28;20473;-51
2021/03/05 08:37:54;;;;;;;22.00;9.80;;;4.80;99.90;;;;;;5086292;28;20406;-47
2021/03/05 08:40:22;;;;;;;22.33;10.07;;;7.90;99.90;;;;;;5084258;28;20405;-47
2021/03/05 08:42:49;;;;;;;26.38;11.63;;;6.50;99.90;;;;;;5088836;28;20412;-48
2021/03/05 08:45:17;;;;;;;19.23;10.25;;;6.40;99.90;;;;;;5068718;28;20431;-49
2021/03/05 08:48:03;;;;;;;24.63;10.90;;;4.90;99.90;;;;;;5087530;28;20409;-47
2021/03/05 08:50:34;;;;;;;22.60;10.57;;;5.00;99.90;;;;;;5086069;28;20469;-48
2021/03/05 08:53:06;;;;;;;20.13;10.27;;;5.10;99.90;;;;;;5087815;28;20398;-49
2021/03/05 08:55:34;;;;;;;24.48;9.88;;;7.00;99.90;;;;;;5090011;28;20406;-51
2021/03/05 08:58:00;;;;;;;19.70;9.37;;;8.00;99.90;;;;;;5083654;28;20922;-48
2021/03/05 09:00:30;;;;;;;22.50;9.70;;;5.30;99.90;;;;;;5088993;28;20459;-47
2021/03/05 09:03:22;;;;;;;19.63;8.90;;;7.20;99.90;;;;;;5087471;28;21030;-48
2021/03/05 09:05:50;;;;;;;19.27;10.15;;;5.00;99.90;;;;;;5080743;28;20459;-50
2021/03/05 09:08:24;;;;;;;18.05;8.93;;;5.10;99.90;;;;;;5084156;28;20459;-47
2021/03/05 09:11:03;;;;;;;19.52;8.73;;;3.60;99.90;;;;;;5088625;28;20382;-48
2021/03/05 09:13:31;;;;;;;19.42;9.05;;;5.20;99.90;;;;;;5084010;28;20402;-47
2021/03/05 09:16:00;;;;;;;21.52;10.25;;;5.10;99.90;;;;;;5088410;28;20382;-49
2021/03/05 09:18:28;;;;;;;24.17;9.55;;;5.20;99.90;;;;;;5082752;28;20416;-46
2021/03/05 09:21:05;;;;;;;17.07;9.10;;;5.40;99.90;;;;;;5088550;28;20416;-46
2021/03/05 09:23:40;;;;;;;36.38;17.00;;;7.70;99.90;;;;;;5070119;28;20416;-46
2021/03/05 09:26:15;;;;;;;23.90;11.40;;;6.80;99.90;;;;;;5088597;28;20889;-47
2021/03/05 09:28:49;;;;;;;25.27;11.00;;;5.20;99.90;;;;;;5070023;28;20451;-47
2021/03/05 09:31:22;;;;;;;25.15;11.02;;;5.30;99.90;;;;;;5083467;28;20393;-47
2021/03/05 09:33:47;;;;;;;22.27;10.43;;;5.70;99.90;;;;;;5087802;28;20381;-48
2021/03/05 09:36:18;;;;;;;19.27;9.57;;;6.30;99.90;;;;;;5086718;28;20888;-47
2021/03/05 09:38:46;;;;;;;22.60;11.45;;;5.50;99.90;;;;;;5059133;28;20490;-49
2021/03/05 09:41:21;;;;;;;28.52;13.38;;;6.80;99.90;;;;;;5081081;28;20863;-47
2021/03/05 09:44:04;;;;;;;22.50;11.70;;;5.60;99.90;;;;;;5092551;28;20378;-47
2021/03/05 09:46:32;;;;;;;24.48;11.43;;;5.70;99.90;;;;;;5074245;28;20403;-48
2021/03/05 09:48:59;;;;;;;21.53;10.60;;;7.30;99.90;;;;;;5084459;28;21043;-46
2021/03/05 09:51:36;;;;;;;19.58;9.73;;;5.60;99.90;;;;;;5087145;28;20417;-47
2021/03/05 09:54:02;;;;;;;21.50;10.25;;;8.40;99.90;;;;;;5092550;28;20395;-48
2021/03/05 09:56:28;;;;;;;22.77;12.43;;;5.60;99.90;;;;;;5086012;28;20394;-50
2021/03/05 09:59:00;;;;;;;19.88;10.45;;;5.60;99.90;;;;;;5091183;28;20401;-49
2021/03/05 10:01:27;;;;;;;19.10;9.73;;;5.40;99.90;;;;;;5088850;28;20390;-48
2021/03/05 10:04:00;;;;;;;22.63;10.07;;;6.90;99.90;;;;;;5092122;28;20419;-47
2021/03/05 10:06:28;;;;;;;23.30;9.83;;;6.90;99.90;;;;;;5075480;28;20399;-47
2021/03/05 10:09:05;;;;;;;19.70;9.30;;;7.10;99.90;;;;;;5074735;28;20418;-51
2021/03/05 10:11:37;;;;;;;24.38;13.68;;;5.60;99.90;;;;;;5091404;28;20394;-49
2021/03/05 10:14:07;;;;;;;24.13;14.20;;;7.30;99.90;;;;;;5087097;28;20420;-49
2021/03/05 10:16:41;;;;;;;21.00;12.27;;;6.00;99.90;;;;;;5092319;28;20436;-47
2021/03/05 10:19:16;;;;;;;18.38;8.80;;;6.20;99.90;;;;;;5074716;28;20410;-47
2021/03/05 10:21:46;;;;;;;20.20;9.80;;;6.30;99.90;;;;;;5086967;28;20394;-48
2021/03/05 10:24:14;;;;;;;20.83;9.50;;;6.40;99.90;;;;;;5091788;28;20382;-49
2021/03/05 10:29:24;;;;;;;18.58;9.60;;;7.90;99.90;;;;;;5092415;28;20724;-46
2021/03/05 10:31:52;;;;;;;19.37;9.53;;;6.60;99.90;;;;;;5086481;28;20398;-47
2021/03/05 10:34:25;;;;;;;19.37;8.80;;;6.60;99.90;;;;;;5091902;28;20386;-50
2021/03/05 10:36:52;;;;;;;21.60;9.18;;;6.40;99.90;;;;;;5091145;28;20917;-47
2021/03/05 10:39:18;;;;;;;20.98;9.48;;;9.40;99.90;;;;;;5084434;28;20473;-47
2021/03/05 10:41:51;;;;;;;18.65;9.95;;;6.40;99.90;;;;;;5089741;28;20382;-48
2021/03/05 10:44:16;;;;;;;20.20;9.80;;;6.20;99.90;;;;;;5084427;28;20389;-47
2021/03/05 10:46:42;;;;;;;24.88;10.57;;;7.30;99.90;;;;;;5067484;28;20845;-49
2021/03/05 10:49:08;;;;;;;22.17;10.32;;;6.00;99.90;;;;;;5088843;28;20390;-47
2021/03/05 10:51:33;;;;;;;22.63;10.43;;;6.00;99.90;;;;;;5091369;28;20399;-51
2021/03/05 10:53:59;;;;;;;21.73;9.90;;;4.30;99.90;;;;;;5086053;28;21010;-47
2021/03/05 10:56:24;;;;;;;21.53;10.17;;;6.30;99.90;;;;;;5088846;28;20422;-47
2021/03/05 10:58:50;;;;;;;18.33;9.68;;;6.20;99.90;;;;;;5083833;28;20891;-47
2021/03/05 11:01:16;;;;;;;22.10;10.70;;;6.30;99.90;;;;;;5090614;28;20375;-48
2021/03/05 11:03:41;;;;;;;21.33;10.30;;;6.50;99.90;;;;;;5085268;28;20812;-48
2021/03/05 11:06:07;;;;;;;20.48;10.13;;;6.60;99.90;;;;;;5089778;28;20367;-47
2021/03/05 11:08:33;;;;;;;22.40;9.97;;;6.00;99.90;;;;;;5053484;28;20881;-48
2021/03/05 11:10:59;;;;;;;21.10;10.02;;;5.90;99.90;;;;;;5085865;28;20382;-47
2021/03/05 11:13:24;;;;;;;19.83;10.20;;;6.00;99.90;;;;;;5090317;28;20469;-48
2021/03/05 11:15:50;;;;;;;21.77;10.03;;;6.10;99.90;;;;;;5083867;28;20394;-48
2021/03/05 11:18:15;;;;;;;23.43;11.60;;;7.20;99.90;;;;;;5089699;28;20398;-50
2021/03/05 11:20:41;;;;;;;24.38;10.70;;;6.30;99.90;;;;;;5084458;28;20895;-47
2021/03/05 11:23:07;;;;;;;25.57;11.90;;;6.40;99.90;;;;;;5090289;28;20477;-47
2021/03/05 11:25:32;;;;;;;22.35;11.02;;;6.40;99.90;;;;;;5084404;28;20399;-48
2021/03/05 11:28:00;;;;;;;22.73;10.87;;;6.40;99.90;;;;;;5089467;28;20886;-47
2021/03/05 11:30:26;;;;;;;23.08;10.57;;;6.50;99.90;;;;;;5084786;28;20504;-47
2021/03/05 11:32:51;;;;;;;20.20;9.70;;;6.50;99.90;;;;;;5089317;28;20390;-47
2021/03/05 11:35:18;;;;;;;21.57;10.20;;;6.70;99.90;;;;;;5090201;28;20859;-48
2021/03/05 11:37:43;;;;;;;22.48;10.20;;;6.60;99.90;;;;;;5036652;28;1318739;-48
2021/03/05 11:40:09;;;;;;;21.77;10.40;;;6.70;99.90;;;;;;5073033;28;20480;-48
2021/03/05 11:42:35;;;;;;;24.70;11.40;;;6.80;99.90;;;;;;5088753;28;20379;-54
2021/03/05 11:45:05;;;;;;;21.75;9.90;;;7.00;99.90;;;;;;5087073;28;20759;-47
2021/03/05 11:47:31;;;;;;;19.57;10.03;;;7.00;99.90;;;;;;5085300;28;20396;-47
2021/03/05 11:49:57;;;;;;;20.23;10.70;;;7.10;99.90;;;;;;5089545;28;20620;-47
2021/03/05 11:52:23;;;;;;;19.52;10.30;;;7.20;99.90;;;;;;5085362;28;20994;-48
2021/03/05 11:54:49;;;;;;;19.17;9.73;;;7.10;99.90;;;;;;5089459;28;20401;-49
2021/03/05 11:57:14;;;;;;;20.90;10.60;;;7.00;99.90;;;;;;5057151;28;20879;-48
2021/03/05 11:59:40;;;;;;;20.20;9.95;;;7.10;99.90;;;;;;5088936;28;20467;-48
2021/03/05 12:02:06;;;;;;;20.73;10.00;;;6.90;99.90;;;;;;5090354;28;20382;-52
2021/03/05 12:04:31;;;;;;;21.50;8.90;;;7.10;99.90;;;;;;5084444;28;20414;-50
2021/03/05 12:06:57;;;;;;;19.75;10.30;;;7.10;99.90;;;;;;5089921;28;20664;-49
2021/03/05 12:09:23;;;;;;;19.57;9.30;;;7.20;99.90;;;;;;5084563;28;20382;-48
2021/03/05 12:11:48;;;;;;;18.37;9.57;;;7.00;99.90;;;;;;5084114;28;20402;-48
2021/03/05 12:14:14;;;;;;;20.33;8.68;;;7.00;99.90;;;;;;5089063;28;20532;-48
2021/03/05 12:16:39;;;;;;;20.10;9.47;;;7.00;99.90;;;;;;5088643;28;20867;-48
2021/03/05 12:19:05;;;;;;;21.92;9.93;;;10.00;99.90;;;;;;5084514;28;20394;-49
2021/03/05 12:21:31;;;;;;;18.93;9.90;;;8.40;99.90;;;;;;5089897;28;20398;-48
2021/03/05 12:23:56;;;;;;;21.63;9.65;;;7.20;99.90;;;;;;5086704;28;20373;-49
2021/03/05 12:26:22;;;;;;;20.27;9.70;;;7.40;99.90;;;;;;5070433;28;20398;-48
2021/03/05 12:28:48;;;;;;;21.83;10.07;;;8.30;99.90;;;;;;5088942;28;20431;-50
2021/03/05 12:31:14;;;;;;;20.35;9.85;;;8.70;99.90;;;;;;5084284;28;20382;-48
2021/03/05 12:33:41;;;;;;;19.48;10.05;;;8.10;99.90;;;;;;5083361;28;20429;-50
2021/03/05 12:36:07;;;;;;;22.95;10.25;;;7.20;99.90;;;;;;5088954;28;20386;-49
2021/03/05 12:38:33;;;;;;;18.83;9.25;;;7.40;99.90;;;;;;5088246;28;20457;-50
2021/03/05 12:40:59;;;;;;;17.80;9.30;;;7.20;99.90;;;;;;5083804;28;20434;-49
2021/03/05 12:43:24;;;;;;;19.48;10.30;;;7.90;99.90;;;;;;5089080;28;20382;-50
2021/03/05 12:45:51;;;;;;;20.83;10.20;;;7.00;99.90;;;;;;5083101;28;20378;-48